Time;durP1;ratioP1;P1;durP2;ratioP2;P2;SDS_P1;SDS_P2;PMS_P1;PMS_P2;Temp;Humidity;BMP_temperature;BMP_pressure;BME280_temperature;BME280_humidity;BME280_pressure;Samples;Min_cycle;Max_cycle;Signal;HPM_P1;HPM_P2
2021/10/21 00:01:54;;;;;;;0.68;0.20;;;13.90;74.20;;;;;;5072436;28;20036;-74
2021/10/21 00:04:20;;;;;;;4.18;0.52;;;13.80;73.70;;;;;;5072739;28;20048;-74
2021/10/21 00:06:45;;;;;;;1.95;0.40;;;13.80;73.80;;;;;;5039533;28;20052;-74
2021/10/21 00:09:11;;;;;;;1.15;0.38;;;13.70;73.70;;;;;;5061034;28;20021;-74
2021/10/21 00:11:39;;;;;;;5.07;0.40;;;13.70;74.70;;;;;;5065757;28;20036;-75
2021/10/21 00:14:05;;;;;;;2.58;0.22;;;13.80;74.50;;;;;;5074170;28;20070;-74
2021/10/21 00:16:31;;;;;;;3.85;1.17;;;13.80;74.10;;;;;;5071980;28;20037;-75
2021/10/21 00:18:56;;;;;;;2.83;0.35;;;13.80;74.70;;;;;;5071869;28;20012;-75
2021/10/21 00:21:22;;;;;;;0.60;0.20;;;13.90;74.60;;;;;;5043783;28;20045;-74
2021/10/21 00:23:48;;;;;;;4.03;0.60;;;13.90;74.30;;;;;;5072442;28;20033;-75
2021/10/21 00:26:14;;;;;;;2.72;0.60;;;13.90;74.60;;;;;;5079390;28;20028;-75
2021/10/21 00:28:39;;;;;;;2.75;0.52;;;14.00;74.70;;;;;;5071236;28;20240;-75
2021/10/21 00:31:05;;;;;;;3.60;0.60;;;13.90;74.00;;;;;;5055471;28;20162;-75
2021/10/21 00:33:32;;;;;;;2.03;0.57;;;13.90;74.80;;;;;;5058921;28;20470;-75
2021/10/21 00:35:57;;;;;;;1.23;0.35;;;13.90;74.60;;;;;;5068914;28;20041;-75
2021/10/21 00:38:23;;;;;;;3.35;0.43;;;13.90;75.00;;;;;;5071220;28;20020;-74
2021/10/21 00:40:49;;;;;;;1.33;0.47;;;13.90;74.90;;;;;;5070387;28;20052;-74
2021/10/21 00:43:15;;;;;;;3.00;0.80;;;13.80;75.40;;;;;;5071233;28;20031;-75
2021/10/21 00:45:41;;;;;;;1.33;0.40;;;13.90;75.50;;;;;;5072258;28;20103;-75
2021/10/21 00:48:06;;;;;;;1.52;0.40;;;13.90;75.40;;;;;;5071160;28;20036;-75
2021/10/21 00:50:32;;;;;;;2.03;0.50;;;13.90;75.10;;;;;;5071086;28;20036;-75
2021/10/21 00:52:59;;;;;;;3.40;1.63;;;13.80;74.90;;;;;;5071098;28;20111;-75
2021/10/21 00:55:27;;;;;;;4.18;0.60;;;13.80;75.50;;;;;;5070283;28;20412;-75
2021/10/21 00:57:54;;;;;;;2.80;0.95;;;13.80;75.80;;;;;;5071417;28;20539;-75
2021/10/21 01:00:19;;;;;;;5.03;0.70;;;13.80;76.00;;;;;;5071259;28;20029;-75
2021/10/21 01:02:45;;;;;;;6.28;1.33;;;13.80;75.50;;;;;;5071001;28;20576;-74
2021/10/21 01:05:11;;;;;;;3.92;0.80;;;13.70;75.60;;;;;;5068655;28;20528;-74
2021/10/21 01:07:37;;;;;;;2.03;0.50;;;13.80;75.80;;;;;;5057637;28;20385;-74
2021/10/21 01:10:07;;;;;;;4.20;0.98;;;13.70;75.90;;;;;;5036399;28;20033;-74
2021/10/21 01:12:34;;;;;;;4.18;0.90;;;13.70;75.60;;;;;;5056223;28;20120;-74
2021/10/21 01:15:18;;;;;;;4.03;0.80;;;13.70;76.10;;;;;;5068976;28;20552;-74
2021/10/21 01:17:43;;;;;;;2.40;0.70;;;13.70;76.10;;;;;;5070767;28;20396;-75
2021/10/21 01:20:11;;;;;;;3.65;0.70;;;13.70;76.00;;;;;;5068402;28;20602;-74
2021/10/21 01:22:38;;;;;;;6.70;0.93;;;13.70;75.90;;;;;;5057764;28;20028;-74
2021/10/21 01:25:04;;;;;;;3.47;0.88;;;13.60;75.90;;;;;;5083639;28;20020;-74
2021/10/21 01:27:30;;;;;;;4.25;0.80;;;13.60;75.70;;;;;;5066164;28;20028;-75
2021/10/21 01:29:55;;;;;;;4.85;1.08;;;13.50;75.80;;;;;;5072952;28;20031;-74
2021/10/21 01:32:26;;;;;;;6.55;1.10;;;13.50;76.10;;;;;;5070242;28;20028;-74
2021/10/21 01:34:52;;;;;;;3.85;0.80;;;13.40;75.80;;;;;;5073038;28;20105;-74
2021/10/21 01:37:18;;;;;;;4.70;0.75;;;13.50;76.60;;;;;;5065174;28;20048;-74
2021/10/21 01:39:44;;;;;;;4.18;1.00;;;13.50;76.30;;;;;;5055520;28;20067;-74
2021/10/21 01:42:10;;;;;;;5.85;1.00;;;13.50;76.40;;;;;;5069826;28;20040;-74
2021/10/21 01:44:36;;;;;;;6.15;1.55;;;13.40;76.60;;;;;;5070533;28;20090;-74
2021/10/21 01:47:02;;;;;;;6.70;1.25;;;13.40;76.50;;;;;;5070804;28;20024;-74
2021/10/21 01:49:27;;;;;;;5.45;1.13;;;13.40;76.80;;;;;;5052177;28;20025;-74
2021/10/21 01:51:53;;;;;;;4.43;0.90;;;13.50;76.90;;;;;;5070235;28;20024;-74
2021/10/21 01:54:19;;;;;;;6.07;1.00;;;13.50;76.60;;;;;;5070920;28;20109;-74
2021/10/21 01:56:45;;;;;;;6.28;0.95;;;13.40;76.20;;;;;;5070525;28;20036;-74
2021/10/21 01:59:11;;;;;;;5.32;1.08;;;13.40;76.70;;;;;;5070354;28;20040;-74
2021/10/21 02:01:37;;;;;;;3.88;1.17;;;13.40;76.40;;;;;;5052524;28;20037;-74
2021/10/21 02:04:04;;;;;;;4.38;0.93;;;13.40;76.80;;;;;;5070570;28;20078;-74
2021/10/21 02:06:30;;;;;;;6.90;0.90;;;13.40;76.60;;;;;;5071656;28;20032;-74
2021/10/21 02:08:56;;;;;;;6.07;1.10;;;13.40;76.30;;;;;;5069812;28;20031;-74
2021/10/21 02:11:22;;;;;;;3.53;0.90;;;13.40;76.70;;;;;;5074249;28;20055;-74
2021/10/21 02:13:48;;;;;;;4.93;0.90;;;13.40;76.70;;;;;;5074692;28;20032;-74
2021/10/21 02:16:14;;;;;;;6.30;1.30;;;13.40;76.80;;;;;;5040624;28;20037;-75
2021/10/21 02:18:40;;;;;;;6.50;1.25;;;13.30;76.70;;;;;;5059924;28;20021;-74
2021/10/21 02:21:06;;;;;;;5.50;1.00;;;13.40;76.90;;;;;;5054454;28;20405;-75
2021/10/21 02:23:31;;;;;;;5.10;1.23;;;13.40;76.80;;;;;;5076736;28;20033;-74
2021/10/21 02:25:57;;;;;;;4.53;1.10;;;13.40;77.10;;;;;;5084596;28;20032;-74
2021/10/21 02:28:23;;;;;;;3.55;1.02;;;13.40;76.90;;;;;;5073941;28;20029;-74
2021/10/21 02:30:48;;;;;;;4.38;0.95;;;13.30;76.50;;;;;;5074610;28;20108;-74
2021/10/21 02:33:14;;;;;;;5.95;1.15;;;13.30;77.00;;;;;;5074212;28;20496;-74
2021/10/21 02:35:40;;;;;;;3.08;1.05;;;13.30;77.10;;;;;;5073224;28;20035;-74
2021/10/21 02:38:06;;;;;;;6.93;1.08;;;13.30;77.10;;;;;;5073641;28;20031;-74
2021/10/21 02:40:32;;;;;;;5.22;1.20;;;13.30;77.20;;;;;;5073900;28;20037;-74
2021/10/21 02:42:57;;;;;;;7.55;1.20;;;13.30;77.00;;;;;;5073880;28;20024;-74
2021/10/21 02:45:23;;;;;;;5.00;1.10;;;13.40;77.30;;;;;;5074431;28;20336;-74
2021/10/21 02:47:49;;;;;;;5.70;0.95;;;13.30;77.80;;;;;;5065718;28;20028;-74
2021/10/21 02:50:15;;;;;;;4.88;1.30;;;13.20;77.10;;;;;;5065266;28;20496;-74
2021/10/21 02:52:41;;;;;;;5.95;1.00;;;13.20;77.30;;;;;;5073638;28;20546;-74
2021/10/21 02:55:08;;;;;;;4.88;1.08;;;13.20;77.50;;;;;;5073489;28;20997;-74
2021/10/21 02:57:35;;;;;;;8.07;1.42;;;13.20;77.40;;;;;;5074281;28;20029;-74
2021/10/21 03:00:01;;;;;;;3.70;1.05;;;13.20;77.40;;;;;;5073473;28;20052;-74
2021/10/21 03:02:27;;;;;;;5.30;0.90;;;13.20;77.50;;;;;;5073625;28;20067;-74
2021/10/21 03:04:52;;;;;;;5.57;1.23;;;13.10;77.30;;;;;;5072831;28;20024;-74
2021/10/21 03:07:18;;;;;;;5.15;1.05;;;13.10;77.50;;;;;;5057570;28;20145;-74
2021/10/21 03:09:44;;;;;;;10.48;1.00;;;13.10;77.70;;;;;;5048443;28;20033;-74
2021/10/21 03:12:09;;;;;;;4.82;0.80;;;13.20;77.60;;;;;;5073845;28;20095;-74
2021/10/21 03:14:35;;;;;;;4.20;1.15;;;13.10;77.50;;;;;;5077034;28;20032;-74
2021/10/21 03:17:01;;;;;;;5.20;1.20;;;13.10;77.70;;;;;;5073435;28;20028;-74
2021/10/21 03:19:26;;;;;;;7.82;1.45;;;13.10;77.70;;;;;;5063867;28;20465;-74
2021/10/21 03:21:52;;;;;;;6.13;1.15;;;13.00;77.30;;;;;;5073076;28;20563;-74
2021/10/21 03:24:17;;;;;;;7.90;1.15;;;12.90;77.80;;;;;;5082167;28;20024;-74
2021/10/21 03:26:43;;;;;;;4.10;1.00;;;13.00;77.80;;;;;;5076919;28;20032;-74
2021/10/21 03:29:09;;;;;;;5.07;1.58;;;13.00;77.90;;;;;;5072929;28;20397;-73
2021/10/21 03:31:35;;;;;;;6.10;1.60;;;13.00;78.10;;;;;;5072701;28;20036;-74
2021/10/21 03:34:00;;;;;;;6.55;1.20;;;13.00;77.60;;;;;;5072607;28;20016;-74
2021/10/21 03:36:26;;;;;;;4.22;1.20;;;13.00;78.00;;;;;;5073247;28;20544;-75
2021/10/21 03:38:53;;;;;;;5.07;1.17;;;12.90;77.50;;;;;;5072388;28;20036;-74
2021/10/21 03:41:19;;;;;;;6.40;1.10;;;13.00;78.20;;;;;;5068609;28;20048;-74
2021/10/21 03:43:45;;;;;;;5.22;0.95;;;13.00;78.00;;;;;;5060561;28;20104;-74
2021/10/21 03:46:10;;;;;;;5.80;1.13;;;13.10;78.30;;;;;;5073662;28;20111;-74
2021/10/21 03:48:36;;;;;;;7.07;1.17;;;13.10;77.70;;;;;;5058227;28;20025;-74
2021/10/21 03:51:01;;;;;;;6.22;1.10;;;13.00;77.50;;;;;;5069486;28;20082;-74
2021/10/21 03:53:27;;;;;;;5.28;0.90;;;13.00;77.70;;;;;;5072327;28;20036;-74
2021/10/21 03:55:54;;;;;;;6.18;1.20;;;13.00;77.60;;;;;;5072225;28;20036;-74
2021/10/21 03:58:20;;;;;;;8.43;1.33;;;12.90;77.60;;;;;;5054602;28;20029;-74
2021/10/21 04:00:45;;;;;;;5.72;1.13;;;12.90;77.70;;;;;;5073411;28;20142;-74
2021/10/21 04:03:11;;;;;;;4.53;1.10;;;12.90;77.30;;;;;;5071320;28;20025;-74
2021/10/21 04:05:38;;;;;;;7.78;1.25;;;12.90;78.00;;;;;;5065713;28;20036;-74
2021/10/21 04:08:05;;;;;;;4.88;1.05;;;12.90;78.10;;;;;;5062569;28;20025;-74
2021/10/21 04:10:31;;;;;;;7.95;1.08;;;13.00;78.10;;;;;;5071952;28;20067;-74
2021/10/21 04:12:56;;;;;;;6.75;1.17;;;12.90;77.60;;;;;;5072106;28;20074;-74
2021/10/21 04:15:25;;;;;;;4.30;1.15;;;12.90;77.70;;;;;;5072979;28;20037;-74
2021/10/21 04:17:52;;;;;;;5.75;1.00;;;12.90;77.90;;;;;;5071532;28;20013;-74
2021/10/21 04:20:18;;;;;;;5.82;1.13;;;12.90;78.70;;;;;;5071829;28;20036;-74
2021/10/21 04:22:43;;;;;;;7.82;0.95;;;12.90;77.90;;;;;;5072367;28;20408;-74
2021/10/21 04:25:09;;;;;;;5.45;0.93;;;13.00;78.00;;;;;;5081746;28;20029;-74
2021/10/21 04:27:35;;;;;;;5.47;1.30;;;12.90;77.80;;;;;;5072898;28;20028;-74
2021/10/21 04:30:02;;;;;;;8.73;1.00;;;12.90;78.10;;;;;;5071008;28;20036;-74
2021/10/21 04:32:28;;;;;;;8.10;1.20;;;12.90;78.10;;;;;;5071831;28;20485;-74
2021/10/21 04:34:53;;;;;;;4.78;1.15;;;12.90;77.70;;;;;;5071311;28;20044;-74
2021/10/21 04:37:19;;;;;;;8.00;1.15;;;12.90;77.90;;;;;;5053805;28;20021;-73
2021/10/21 04:39:44;;;;;;;5.93;1.55;;;12.90;78.00;;;;;;5054448;28;20055;-74
2021/10/21 04:42:10;;;;;;;2.75;0.90;;;12.90;78.20;;;;;;5063683;28;20416;-73
2021/10/21 04:44:36;;;;;;;6.38;1.10;;;12.80;77.90;;;;;;5053227;28;20056;-74
2021/10/21 04:47:01;;;;;;;6.50;1.30;;;12.90;78.60;;;;;;5072395;28;20020;-75
2021/10/21 04:49:28;;;;;;;6.70;1.23;;;12.90;78.30;;;;;;5073600;28;20033;-75
2021/10/21 04:51:54;;;;;;;5.63;0.98;;;13.00;78.30;;;;;;5071731;28;20016;-74
2021/10/21 04:54:20;;;;;;;7.50;1.40;;;12.90;78.00;;;;;;5070921;28;20015;-74
2021/10/21 04:56:45;;;;;;;3.97;1.08;;;12.90;78.20;;;;;;5071065;28;20059;-75
2021/10/21 04:59:11;;;;;;;8.35;3.72;;;12.80;78.00;;;;;;5071152;28;20149;-75
2021/10/21 05:01:37;;;;;;;4.88;1.80;;;12.80;78.10;;;;;;5070880;28;20408;-75
2021/10/21 05:04:02;;;;;;;7.45;2.60;;;12.80;78.30;;;;;;5071221;28;20025;-74
2021/10/21 05:06:28;;;;;;;6.55;1.63;;;12.80;78.50;;;;;;5069436;28;20035;-75
2021/10/21 05:08:54;;;;;;;8.95;1.40;;;12.80;78.50;;;;;;5070209;28;20021;-74
2021/10/21 05:11:19;;;;;;;4.70;1.33;;;12.70;78.40;;;;;;5070847;28;20060;-74
2021/10/21 05:13:45;;;;;;;7.53;1.50;;;12.80;79.00;;;;;;5052846;28;20440;-74
2021/10/21 05:16:10;;;;;;;6.57;1.10;;;12.80;79.00;;;;;;5070944;28;20036;-74
2021/10/21 05:18:36;;;;;;;5.47;1.13;;;12.80;78.60;;;;;;5069186;28;20025;-74
2021/10/21 05:21:02;;;;;;;3.88;1.27;;;12.70;78.50;;;;;;5071634;28;20040;-73
2021/10/21 05:23:27;;;;;;;5.43;1.13;;;12.70;79.10;;;;;;5073689;28;20035;-73
2021/10/21 05:25:53;;;;;;;7.95;1.25;;;12.70;78.80;;;;;;5074941;28;20031;-74
2021/10/21 05:28:18;;;;;;;6.57;1.20;;;12.70;78.90;;;;;;5054166;28;20477;-74
2021/10/21 05:30:44;;;;;;;8.68;1.38;;;12.70;78.90;;;;;;5052826;28;20036;-73
2021/10/21 05:33:10;;;;;;;7.55;1.17;;;12.70;79.00;;;;;;5048162;28;20029;-73
2021/10/21 05:35:35;;;;;;;7.13;1.23;;;12.70;80.20;;;;;;5068829;28;21387;-74
2021/10/21 05:38:01;;;;;;;6.13;1.30;;;12.70;78.70;;;;;;5047741;28;20036;-75
2021/10/21 05:40:27;;;;;;;9.05;1.77;;;12.70;79.30;;;;;;5050304;28;20045;-75
2021/10/21 05:42:53;;;;;;;6.15;1.40;;;12.70;79.20;;;;;;5069689;28;20040;-75
2021/10/21 05:45:19;;;;;;;8.23;1.40;;;12.70;78.90;;;;;;5052943;28;20039;-76
2021/10/21 05:47:46;;;;;;;6.72;1.27;;;12.70;79.30;;;;;;5069861;28;20488;-75
2021/10/21 05:50:13;;;;;;;7.30;1.10;;;12.70;79.10;;;;;;5069453;28;20032;-74
2021/10/21 05:52:39;;;;;;;5.10;1.00;;;12.70;79.40;;;;;;5069753;28;20024;-74
2021/10/21 05:55:06;;;;;;;7.10;1.40;;;12.70;79.40;;;;;;5070794;28;20046;-75
2021/10/21 05:57:32;;;;;;;6.40;0.93;;;12.70;79.50;;;;;;5069579;28;20025;-74
2021/10/21 05:59:57;;;;;;;6.40;1.00;;;12.80;79.60;;;;;;5060024;28;20396;-74
2021/10/21 06:02:23;;;;;;;6.72;1.10;;;12.80;79.50;;;;;;5080722;28;20036;-74
2021/10/21 06:04:49;;;;;;;6.30;1.20;;;12.80;79.60;;;;;;5055419;28;20485;-74
2021/10/21 06:07:15;;;;;;;3.78;1.25;;;12.80;79.50;;;;;;5076785;28;20119;-74
2021/10/21 06:09:41;;;;;;;4.57;0.90;;;12.80;79.40;;;;;;5069625;28;20021;-74
2021/10/21 06:12:07;;;;;;;8.85;1.48;;;12.90;79.50;;;;;;5070399;28;20038;-74
2021/10/21 06:14:33;;;;;;;5.70;1.10;;;12.90;79.60;;;;;;5064672;28;20029;-74
2021/10/21 06:16:59;;;;;;;6.30;1.13;;;12.90;79.30;;;;;;5060229;28;20055;-73
2021/10/21 06:19:26;;;;;;;5.05;1.40;;;12.90;78.70;;;;;;5055600;28;20032;-74
2021/10/21 06:21:57;;;;;;;5.68;1.20;;;12.80;79.20;;;;;;5071692;28;20069;-74
2021/10/21 06:24:27;;;;;;;4.72;1.13;;;12.80;79.60;;;;;;5080057;28;20020;-74
2021/10/21 06:26:53;;;;;;;5.85;1.50;;;12.80;79.40;;;;;;5071659;28;20079;-75
2021/10/21 06:29:18;;;;;;;5.68;1.30;;;12.80;79.40;;;;;;5064161;28;20020;-74
2021/10/21 06:31:47;;;;;;;5.78;1.25;;;12.80;79.60;;;;;;5055343;28;20032;-74
2021/10/21 06:34:13;;;;;;;4.28;1.15;;;12.80;79.60;;;;;;5054946;28;20509;-73
2021/10/21 06:36:39;;;;;;;7.32;1.55;;;12.80;79.50;;;;;;5053523;28;20033;-73
2021/10/21 06:39:04;;;;;;;12.15;1.40;;;12.80;79.50;;;;;;5070976;28;20523;-73
2021/10/21 06:41:30;;;;;;;5.45;1.20;;;12.80;79.60;;;;;;5070485;28;20052;-73
2021/10/21 06:43:56;;;;;;;5.95;1.23;;;12.90;79.70;;;;;;5070902;28;20016;-73
2021/10/21 06:46:22;;;;;;;5.65;1.20;;;12.80;79.20;;;;;;5071379;28;20032;-74
2021/10/21 06:48:48;;;;;;;5.75;1.23;;;12.90;79.60;;;;;;5056325;28;20048;-75
2021/10/21 06:51:14;;;;;;;4.60;1.23;;;12.90;79.70;;;;;;5059306;28;20528;-73
2021/10/21 06:53:40;;;;;;;4.45;1.17;;;13.00;79.90;;;;;;5050386;28;20025;-74
2021/10/21 06:56:05;;;;;;;7.18;1.13;;;13.00;79.70;;;;;;5053945;28;20504;-74
2021/10/21 06:58:33;;;;;;;5.20;1.00;;;13.00;79.30;;;;;;5058390;28;20551;-74
2021/10/21 07:00:58;;;;;;;5.05;1.13;;;13.10;79.70;;;;;;5040108;28;20044;-75
2021/10/21 07:03:24;;;;;;;7.30;1.27;;;13.10;79.30;;;;;;5074690;28;20024;-74
2021/10/21 07:05:52;;;;;;;8.27;1.63;;;13.10;79.40;;;;;;5074991;28;20401;-75
2021/10/21 07:08:18;;;;;;;5.38;1.27;;;13.10;79.10;;;;;;5075731;28;20075;-74
2021/10/21 07:10:44;;;;;;;6.80;1.40;;;13.00;78.90;;;;;;5074623;28;20036;-74
2021/10/21 07:13:10;;;;;;;6.15;1.48;;;13.10;79.40;;;;;;5040108;28;20389;-74
2021/10/21 07:15:36;;;;;;;6.00;1.02;;;13.00;79.30;;;;;;5052027;28;20414;-74
2021/10/21 07:18:03;;;;;;;8.18;1.17;;;13.10;79.60;;;;;;5064108;28;20025;-74
2021/10/21 07:20:29;;;;;;;4.57;1.20;;;13.10;79.50;;;;;;5067314;28;20413;-74
2021/10/21 07:22:55;;;;;;;6.35;1.30;;;13.20;79.40;;;;;;5073840;28;20146;-74
2021/10/21 07:25:23;;;;;;;7.28;1.40;;;13.20;79.30;;;;;;5086379;28;20070;-74
2021/10/21 07:27:49;;;;;;;8.43;1.30;;;13.20;79.50;;;;;;5058048;28;20528;-74
2021/10/21 07:30:15;;;;;;;6.45;1.38;;;13.20;79.60;;;;;;5073602;28;20099;-74
2021/10/21 07:32:42;;;;;;;5.32;1.13;;;13.30;79.70;;;;;;5073260;28;20029;-74
2021/10/21 07:35:08;;;;;;;6.32;1.15;;;13.30;79.30;;;;;;5073500;28;20504;-74
2021/10/21 07:37:34;;;;;;;8.00;1.35;;;13.30;79.40;;;;;;5055394;28;20032;-74
2021/10/21 07:40:00;;;;;;;7.10;1.30;;;13.40;79.50;;;;;;5056716;28;20045;-74
2021/10/21 07:42:25;;;;;;;7.80;1.63;;;13.40;79.70;;;;;;5073723;28;20098;-74
2021/10/21 07:44:51;;;;;;;6.70;1.30;;;13.50;79.60;;;;;;5073116;28;20060;-74
2021/10/21 07:47:17;;;;;;;7.30;1.35;;;13.60;79.70;;;;;;5073101;28;20027;-74
2021/10/21 07:49:44;;;;;;;6.90;1.60;;;13.60;79.10;;;;;;5073751;28;20476;-75
2021/10/21 07:52:09;;;;;;;8.05;1.70;;;13.60;79.00;;;;;;5038985;28;20040;-74
2021/10/21 07:54:35;;;;;;;9.35;1.75;;;13.70;79.30;;;;;;5055545;28;20031;-75
2021/10/21 07:57:02;;;;;;;8.13;1.25;;;13.80;78.90;;;;;;5074558;28;20115;-75
2021/10/21 07:59:28;;;;;;;6.40;1.00;;;13.90;79.10;;;;;;5075050;28;20032;-73
2021/10/21 08:02:00;;;;;;;4.65;1.20;;;13.90;78.90;;;;;;5073535;28;20056;-73
2021/10/21 08:04:26;;;;;;;7.60;1.50;;;13.90;78.40;;;;;;5073134;28;20029;-73
2021/10/21 08:06:52;;;;;;;6.80;1.23;;;14.00;78.70;;;;;;5074122;28;20099;-72
2021/10/21 08:09:18;;;;;;;6.40;1.30;;;13.90;78.60;;;;;;5072681;28;20032;-72
2021/10/21 08:11:46;;;;;;;5.57;1.42;;;14.00;79.10;;;;;;5050571;28;20037;-74
2021/10/21 08:14:12;;;;;;;7.05;1.10;;;14.00;78.90;;;;;;5072228;28;20032;-72
2021/10/21 08:16:38;;;;;;;7.53;1.38;;;14.10;79.10;;;;;;5072822;28;20052;-73
2021/10/21 08:19:04;;;;;;;8.52;1.20;;;14.10;79.10;;;;;;5057861;28;20025;-72
2021/10/21 08:21:32;;;;;;;8.23;1.63;;;14.10;78.90;;;;;;5057636;28;20163;-72
2021/10/21 08:24:05;;;;;;;8.13;1.48;;;14.20;79.20;;;;;;5075787;28;20554;-79
2021/10/21 08:26:31;;;;;;;6.63;1.10;;;14.10;79.30;;;;;;5060290;28;20029;-72
2021/10/21 08:29:00;;;;;;;10.18;1.33;;;14.10;79.50;;;;;;5072219;28;20027;-73
2021/10/21 08:31:25;;;;;;;8.38;1.40;;;14.20;79.50;;;;;;5072274;28;20028;-72
2021/10/21 08:33:51;;;;;;;7.63;1.15;;;14.10;79.70;;;;;;5072496;28;20074;-72
2021/10/21 08:36:23;;;;;;;8.20;1.70;;;14.20;80.00;;;;;;5042555;28;20394;-71
2021/10/21 08:38:50;;;;;;;7.43;1.20;;;14.20;79.80;;;;;;5068228;28;20501;-72
2021/10/21 08:41:16;;;;;;;5.28;1.15;;;14.20;80.00;;;;;;5071738;28;20520;-72
2021/10/21 08:43:43;;;;;;;12.35;1.30;;;14.20;80.30;;;;;;5072180;28;20088;-73
2021/10/21 08:46:11;;;;;;;7.18;1.50;;;14.20;80.30;;;;;;5070627;28;20087;-73
2021/10/21 08:48:40;;;;;;;9.82;1.63;;;14.20;80.50;;;;;;5058136;28;20047;-75
2021/10/21 08:51:06;;;;;;;3.08;0.70;;;14.20;81.50;;;;;;5059668;28;20059;-74
2021/10/21 08:53:34;;;;;;;7.60;1.30;;;14.40;81.10;;;;;;5070044;28;20449;-73
2021/10/21 08:56:00;;;;;;;9.23;1.58;;;14.80;82.10;;;;;;5069655;28;20029;-75
2021/10/21 08:58:27;;;;;;;7.18;1.40;;;15.00;79.90;;;;;;5070635;28;20074;-81
2021/10/21 09:01:06;;;;;;;7.57;1.50;;;15.00;79.90;;;;;;5070738;28;20025;-74
2021/10/21 09:03:47;;;;;;;5.60;1.30;;;15.10;79.30;;;;;;5056298;28;20104;-75
2021/10/21 09:06:28;;;;;;;8.98;1.52;;;15.10;78.80;;;;;;5070766;28;20028;-74
2021/10/21 09:08:53;;;;;;;8.95;1.17;;;15.10;79.00;;;;;;5069611;28;20028;-74
2021/10/21 09:11:23;;;;;;;6.50;1.08;;;15.20;79.50;;;;;;5048696;28;20035;-78
2021/10/21 09:14:09;;;;;;;6.10;1.40;;;15.60;80.20;;;;;;5070766;28;20024;-75
2021/10/21 09:16:35;;;;;;;6.95;1.05;;;15.70;78.10;;;;;;5056804;28;20051;-77
2021/10/21 09:19:11;;;;;;;7.30;1.42;;;15.70;77.70;;;;;;5070096;28;20025;-77
2021/10/21 09:21:39;;;;;;;6.03;1.17;;;15.60;79.00;;;;;;5069753;28;20500;-79
2021/10/21 09:24:30;;;;;;;7.55;1.42;;;15.60;78.40;;;;;;5077831;28;20020;-81
2021/10/21 09:27:04;;;;;;;6.15;1.20;;;15.60;78.20;;;;;;5071712;28;20031;-81
2021/10/21 09:29:31;;;;;;;9.00;1.60;;;15.50;78.40;;;;;;5070168;28;20040;-81
2021/10/21 09:32:12;;;;;;;6.15;1.02;;;15.40;78.80;;;;;;5071163;28;20039;-79
2021/10/21 09:34:44;;;;;;;9.38;1.40;;;15.40;79.30;;;;;;5070725;28;20031;-80
2021/10/21 09:37:14;;;;;;;6.13;1.20;;;15.70;80.60;;;;;;5054393;28;20032;-79
2021/10/21 09:39:55;;;;;;;6.18;1.05;;;15.90;79.40;;;;;;5070118;28;20245;-78
2021/10/21 09:42:32;;;;;;;7.07;1.15;;;16.00;79.70;;;;;;5070230;28;20179;-76
2021/10/21 09:45:22;;;;;;;7.20;1.27;;;16.10;78.70;;;;;;5043541;28;20033;-78
2021/10/21 09:47:50;;;;;;;7.80;1.45;;;16.30;79.30;;;;;;5059046;28;20033;-78
2021/10/21 09:50:19;;;;;;;9.45;1.25;;;16.70;79.30;;;;;;5061415;28;20156;-79
2021/10/21 09:53:14;;;;;;;6.47;1.00;;;16.60;77.60;;;;;;5070431;28;20441;-77
2021/10/21 09:55:41;;;;;;;9.05;1.30;;;16.50;78.00;;;;;;5057534;28;20025;-74
2021/10/21 09:58:11;;;;;;;6.85;1.58;;;16.30;78.00;;;;;;5070396;28;20025;-73
2021/10/21 10:00:39;;;;;;;5.28;1.17;;;16.30;79.00;;;;;;5055184;28;20068;-75
2021/10/21 10:03:29;;;;;;;7.28;1.90;;;16.30;79.20;;;;;;5069114;28;20485;-75
2021/10/21 10:05:55;;;;;;;8.57;1.90;;;16.30;79.70;;;;;;5043138;28;20033;-73
2021/10/21 10:08:23;;;;;;;6.88;0.90;;;16.40;80.00;;;;;;5063037;28;20107;-75
2021/10/21 10:10:51;;;;;;;7.47;1.63;;;16.80;79.50;;;;;;5069515;28;20032;-80
2021/10/21 10:13:18;;;;;;;7.10;1.20;;;16.80;78.40;;;;;;5070344;28;20077;-74
2021/10/21 10:15:45;;;;;;;8.18;1.23;;;16.70;78.90;;;;;;5055846;28;20029;-74
2021/10/21 10:18:22;;;;;;;5.25;1.13;;;16.90;78.90;;;;;;5069727;28;20029;-76
2021/10/21 10:21:05;;;;;;;6.93;2.03;;;16.90;78.40;;;;;;5044114;28;20037;-76
2021/10/21 10:23:33;;;;;;;5.93;1.00;;;16.90;78.70;;;;;;5045011;28;20029;-78
2021/10/21 10:25:59;;;;;;;6.90;1.10;;;16.90;78.70;;;;;;5080537;28;20079;-79
2021/10/21 10:28:25;;;;;;;5.85;1.17;;;16.90;78.70;;;;;;5054606;28;20485;-77
2021/10/21 10:30:56;;;;;;;5.38;1.15;;;16.90;78.90;;;;;;5072733;28;20046;-79
2021/10/21 10:33:31;;;;;;;5.30;1.10;;;16.90;78.70;;;;;;5072910;28;20024;-77
2021/10/21 10:36:30;;;;;;;5.47;1.00;;;16.90;78.80;;;;;;5070222;28;20029;-77
2021/10/21 10:38:57;;;;;;;4.32;1.00;;;16.80;78.80;;;;;;5074825;28;20048;-76
2021/10/21 10:41:41;;;;;;;4.95;0.82;;;16.80;78.40;;;;;;5069799;28;20056;-75
2021/10/21 10:44:08;;;;;;;4.78;1.20;;;16.70;78.90;;;;;;5064869;28;20029;-77
2021/10/21 10:46:53;;;;;;;4.22;0.95;;;16.60;79.30;;;;;;5061503;28;20024;-76
2021/10/21 10:49:37;;;;;;;4.32;1.05;;;16.50;79.40;;;;;;5076251;28;20021;-76
2021/10/21 10:52:12;;;;;;;3.45;1.10;;;16.40;80.20;;;;;;5072204;28;20040;-77
2021/10/21 10:54:43;;;;;;;3.50;0.85;;;16.40;81.50;;;;;;5058890;28;20577;-75
2021/10/21 10:57:13;;;;;;;2.90;0.57;;;16.30;81.70;;;;;;5073089;28;20025;-77
2021/10/21 10:59:42;;;;;;;3.35;0.77;;;16.30;82.50;;;;;;5077553;28;20512;-77
2021/10/21 11:02:26;;;;;;;3.80;0.80;;;16.20;83.00;;;;;;5064996;28;20036;-78
2021/10/21 11:04:52;;;;;;;;;;;16.10;82.30;;;;;;5073753;28;20492;-76
2021/10/21 11:07:28;;;;;;;3.55;0.70;;;16.00;82.80;;;;;;5084582;28;19912;-76
2021/10/21 11:10:18;;;;;;;3.47;0.73;;;16.00;82.90;;;;;;5070613;28;20103;-77
2021/10/21 11:12:45;;;;;;;5.28;0.93;;;15.90;83.50;;;;;;5074189;28;20511;-77
2021/10/21 11:15:31;;;;;;;5.95;1.02;;;15.90;83.60;;;;;;5073644;28;20477;-77
2021/10/21 11:18:02;;;;;;;3.38;0.73;;;15.90;83.30;;;;;;5073127;28;20481;-77
2021/10/21 11:20:30;;;;;;;5.75;1.30;;;15.80;84.70;;;;;;5068702;28;20044;-76
2021/10/21 11:22:57;;;;;;;4.28;0.73;;;15.80;84.50;;;;;;5062838;28;20485;-76
2021/10/21 11:25:30;;;;;;;3.42;0.50;;;15.80;84.40;;;;;;5086753;28;20025;-77
2021/10/21 11:27:57;;;;;;;2.85;0.38;;;15.60;83.40;;;;;;5073888;28;20488;-76
2021/10/21 11:30:24;;;;;;;2.47;0.60;;;15.50;83.90;;;;;;5072385;28;20028;-77
2021/10/21 11:32:52;;;;;;;2.20;0.32;;;15.40;84.10;;;;;;5075558;28;20024;-76
2021/10/21 11:35:23;;;;;;;1.98;0.60;;;15.40;84.90;;;;;;5073733;28;20063;-76
2021/10/21 11:38:00;;;;;;;1.77;0.30;;;15.40;84.80;;;;;;5068337;28;20511;-76
2021/10/21 11:40:34;;;;;;;1.48;0.40;;;15.40;85.00;;;;;;5058031;28;20075;-76
2021/10/21 11:43:05;;;;;;;1.13;0.30;;;15.50;85.60;;;;;;5073499;28;20393;-76
2021/10/21 11:45:34;;;;;;;1.20;0.30;;;15.90;86.60;;;;;;5058346;28;20028;-73
2021/10/21 11:48:05;;;;;;;2.58;0.40;;;16.70;88.20;;;;;;5071003;28;20029;-76
2021/10/21 11:50:51;;;;;;;0.95;0.28;;;17.60;87.40;;;;;;5054883;28;20028;-77
2021/10/21 11:53:18;;;;;;;2.72;0.60;;;18.50;86.10;;;;;;5072783;28;20078;-77
2021/10/21 11:55:45;;;;;;;1.80;0.55;;;19.20;83.60;;;;;;5072315;28;20020;-77
2021/10/21 11:58:26;;;;;;;1.95;0.45;;;19.70;82.00;;;;;;5080334;28;20481;-77
2021/10/21 12:01:09;;;;;;;1.45;0.35;;;20.20;79.90;;;;;;5051383;28;20024;-77
2021/10/21 12:03:42;;;;;;;1.27;0.45;;;20.70;78.40;;;;;;5058039;28;20083;-77
2021/10/21 12:06:10;;;;;;;1.50;0.60;;;20.90;75.60;;;;;;5061337;28;20402;-76
2021/10/21 12:08:36;;;;;;;1.95;0.50;;;21.30;75.40;;;;;;5069878;28;20024;-77
2021/10/21 12:11:06;;;;;;;2.00;0.50;;;21.60;73.30;;;;;;5076592;28;20040;-76
2021/10/21 12:13:37;;;;;;;1.42;0.43;;;21.80;72.60;;;;;;5049522;28;20025;-73
2021/10/21 12:16:12;;;;;;;1.52;0.38;;;22.00;70.20;;;;;;5070636;28;20452;-74
2021/10/21 12:18:38;;;;;;;1.27;0.40;;;22.10;70.90;;;;;;5053587;28;20017;-73
2021/10/21 12:21:07;;;;;;;1.60;0.40;;;22.40;69.20;;;;;;5062174;28;20060;-73
2021/10/21 12:23:35;;;;;;;1.30;0.47;;;22.50;66.30;;;;;;5067702;28;20099;-75
2021/10/21 12:26:07;;;;;;;0.93;0.40;;;22.90;65.90;;;;;;5061354;28;20031;-75
2021/10/21 12:28:37;;;;;;;1.20;0.40;;;23.30;67.30;;;;;;5071683;28;20052;-69
2021/10/21 12:31:23;;;;;;;2.55;0.40;;;23.50;64.80;;;;;;5071174;28;20036;-69
2021/10/21 12:33:56;;;;;;;0.98;0.45;;;23.50;64.60;;;;;;5067354;28;20044;-68
2021/10/21 12:36:24;;;;;;;1.58;0.40;;;23.20;61.60;;;;;;5070971;28;20116;-68
2021/10/21 12:38:52;;;;;;;1.02;0.30;;;22.40;61.10;;;;;;5062259;28;20078;-68
2021/10/21 12:41:19;;;;;;;1.23;0.40;;;21.60;63.10;;;;;;5065106;28;20045;-75
2021/10/21 12:44:06;;;;;;;1.58;0.40;;;20.90;64.30;;;;;;5070580;28;20024;-76
2021/10/21 12:46:32;;;;;;;2.58;0.50;;;20.10;66.30;;;;;;5056423;28;20040;-76
2021/10/21 12:49:15;;;;;;;3.92;0.50;;;19.50;67.30;;;;;;5055293;28;20052;-77
2021/10/21 12:51:43;;;;;;;2.83;0.60;;;19.00;68.50;;;;;;5055781;28;20096;-75
2021/10/21 12:54:21;;;;;;;2.10;0.30;;;18.70;70.20;;;;;;5069189;28;20029;-75